aviador You're here:

LEBB Decoded Metar

BILBAO in SPAIN
Report Time2017-12-11 09:00:00
UTC Time2017-12-11 09:14:57
Flight Rules vfr VFR
Wind260° at 03 kt
W.Decomp.*RWY 28: 2.9 kt HW 0.9 kt LCW
RWY 30: 2.4 kt HW 1.8 kt LCW
W.Rank260° ranks 36
Current wind is below 260° avg. (5.7)
Visibility9999 m
Phenomena:N/A
Clouds:Few 045 Hf
Expected CloudBase > 1,200 ft AGL from Temp-Dew spread
CeilingNone
Temp08°C (ISA -7)
Dew Point05°C (82% RH)
AAT5.8°C
QNH0989 hPa
Density Alt240 ft
Elevation112 ft
Report Wrong Elevation
Raw Report
LEBB 110900Z 26003KT 9999 FEW045 08/05 Q0989 NOSIG=

Extra information for LEBB:More info

Metar Taf Metar & Taf Last 4 Metars F.Rules Stats Wind Profile Meteogram Temp Stats Airport Information Weather charts Add Link Nearby VenuesMetar ALERT Operation Metar Decoded Social comments